Time;durP1;ratioP1;P1;durP2;ratioP2;P2;SDS_P1;SDS_P2;PMS_P1;PMS_P2;Temp;Humidity;BMP_temperature;BMP_pressure;BME280_temperature;BME280_humidity;BME280_pressure;Samples;Min_cycle;Max_cycle;Signal;HPM_P1;HPM_P2
2023/12/22 00:00:31;;;;;;;13.43;7.30;;;;;;;5.95;100.00;99759.16;2082546;28;20188;-68
2023/12/22 00:01:32;;;;;;;12.50;7.83;;;;;;;5.93;100.00;99761.53;2082421;28;20173;-68
2023/12/22 00:02:32;;;;;;;14.33;7.93;;;;;;;5.92;100.00;99759.97;2082291;28;20323;-68
2023/12/22 00:03:33;;;;;;;16.40;7.87;;;;;;;5.88;100.00;99762.78;2082239;28;20227;-68
2023/12/22 00:04:33;;;;;;;13.53;7.13;;;;;;;5.91;100.00;99758.44;2082336;28;20184;-68
2023/12/22 00:05:34;;;;;;;13.07;8.00;;;;;;;5.68;100.00;99741.94;2082355;28;20184;-68
2023/12/22 00:06:34;;;;;;;12.17;7.47;;;;;;;5.89;100.00;99752.59;2082394;28;20174;-68
2023/12/22 00:07:35;;;;;;;14.13;7.30;;;;;;;5.62;100.00;99719.66;2082424;28;20176;-69
2023/12/22 00:08:35;;;;;;;11.40;7.77;;;;;;;5.92;100.00;99763.50;2082290;28;20301;-69
2023/12/22 00:09:36;;;;;;;13.33;7.53;;;;;;;5.92;100.00;99762.72;2082401;28;20260;-68
2023/12/22 00:10:36;;;;;;;12.10;8.17;;;;;;;5.58;100.00;99707.94;2082307;28;20181;-68
2023/12/22 00:11:36;;;;;;;10.60;6.97;;;;;;;5.91;100.00;99759.22;2081631;28;20680;-68
2023/12/22 00:12:38;;;;;;;13.60;7.33;;;;;;;5.92;100.00;99760.75;2081806;28;20677;-68
2023/12/22 00:13:38;;;;;;;16.52;6.85;;;;;;;5.91;100.00;99756.47;2082278;28;20204;-69
2023/12/22 00:14:40;;;;;;;14.80;7.53;;;;;;;5.89;100.00;99752.59;2082459;28;20269;-68
2023/12/22 00:15:42;;;;;;;13.63;7.28;;;;;;;5.88;100.00;99768.28;2082261;28;20567;-68
2023/12/22 00:16:42;;;;;;;16.67;7.45;;;;;;;5.79;100.00;99765.28;2082216;28;20184;-69
2023/12/22 00:17:43;;;;;;;12.73;7.37;;;;;;;5.75;100.00;99764.56;2082249;28;20180;-69
2023/12/22 00:18:43;;;;;;;12.40;6.70;;;;;;;5.76;100.00;99763.38;2082264;28;20208;-68
2023/12/22 00:19:44;;;;;;;14.13;7.00;;;;;;;5.79;100.00;99759.78;2082189;28;20190;-69
2023/12/22 00:20:44;;;;;;;13.17;7.63;;;;;;;5.04;100.00;99628.88;2082237;28;20173;-68
2023/12/22 00:21:45;;;;;;;16.43;9.43;;;;;;;5.88;100.00;99746.28;2082293;28;20557;-68
2023/12/22 00:22:45;;;;;;;14.37;8.90;;;;;;;5.94;100.00;99752.84;2082160;28;20267;-68
2023/12/22 00:23:46;;;;;;;12.43;8.07;;;;;;;5.84;100.00;99737.34;2082053;28;20220;-69
2023/12/22 00:24:47;;;;;;;12.47;7.10;;;;;;;5.57;100.00;99687.16;2082169;28;20181;-68
2023/12/22 00:25:47;;;;;;;11.60;6.53;;;;;;;6.01;100.00;99744.47;2081431;28;20303;-68
2023/12/22 00:26:48;;;;;;;13.43;7.30;;;;;;;6.02;100.00;99740.53;2081777;28;20674;-69
2023/12/22 00:27:48;;;;;;;14.03;7.83;;;;;;;5.01;100.00;99581.09;2082137;28;20187;-68
2023/12/22 00:28:49;;;;;;;11.63;6.93;;;;;;;6.12;100.00;99736.81;2082108;28;20208;-69
2023/12/22 00:29:49;;;;;;;15.97;8.13;;;;;;;5.85;100.00;99688.63;2082132;28;20271;-68
2023/12/22 00:30:50;;;;;;;13.53;8.47;;;;;;;6.05;100.00;99723.16;2082346;28;20639;-68
2023/12/22 00:31:50;;;;;;;14.53;8.70;;;;;;;6.16;100.00;99734.72;2082082;28;20169;-68
2023/12/22 00:32:51;;;;;;;12.97;8.17;;;;;;;6.09;100.00;99720.34;2082196;28;20646;-69
2023/12/22 00:33:51;;;;;;;11.73;6.77;;;;;;;6.28;100.00;99739.63;2082086;28;20609;-68
2023/12/22 00:34:52;;;;;;;13.37;7.63;;;;;;;6.34;100.00;99739.88;2082050;28;20646;-69
2023/12/22 00:35:53;;;;;;;15.95;7.72;;;;;;;6.39;100.00;99747.63;2082169;28;20555;-69
2023/12/22 00:36:53;;;;;;;13.60;7.73;;;;;;;6.29;100.00;99730.16;2082066;28;20200;-68
2023/12/22 00:37:54;;;;;;;17.03;7.63;;;;;;;6.33;100.00;99732.81;2082023;28;20593;-69
2023/12/22 00:38:54;;;;;;;12.97;7.73;;;;;;;6.36;100.00;99743.75;2082156;28;20178;-68
2023/12/22 00:39:55;;;;;;;13.57;7.50;;;;;;;6.33;100.00;99739.13;2082082;28;20189;-68
2023/12/22 00:40:55;;;;;;;15.60;8.77;;;;;;;5.94;100.00;99661.34;2082246;28;20178;-68
2023/12/22 00:41:56;;;;;;;15.57;7.87;;;;;;;6.33;100.00;99724.56;2082146;28;20661;-68
2023/12/22 00:42:56;;;;;;;13.33;8.20;;;;;;;6.35;100.00;99731.19;2081998;28;20722;-69
2023/12/22 00:43:57;;;;;;;16.60;7.07;;;;;;;6.40;100.00;99736.22;2082146;28;20304;-68
2023/12/22 00:44:57;;;;;;;13.07;7.00;;;;;;;6.29;100.00;99708.16;2081946;28;20211;-68
2023/12/22 00:45:57;;;;;;;17.13;7.13;;;;;;;6.48;100.00;99734.88;2082127;28;20177;-69
2023/12/22 00:46:58;;;;;;;15.23;7.50;;;;;;;5.77;100.00;99630.25;2081861;28;20740;-69
2023/12/22 00:47:58;;;;;;;12.13;7.10;;;;;;;6.45;100.00;99727.44;2082013;28;20612;-69
2023/12/22 00:48:59;;;;;;;11.37;6.43;;;;;;;6.42;100.00;99730.28;2081934;28;20227;-69
2023/12/22 00:49:59;;;;;;;11.60;6.63;;;;;;;5.53;100.00;99604.00;2081946;28;20315;-69
2023/12/22 00:51:00;;;;;;;11.37;6.27;;;;;;;6.11;100.00;99693.97;2081964;28;20191;-68
2023/12/22 00:52:01;;;;;;;10.93;6.63;;;;;;;6.29;100.00;99726.63;2082056;28;20548;-68
2023/12/22 00:53:02;;;;;;;13.20;7.18;;;;;;;6.35;100.00;99735.94;2082149;28;20586;-68
2023/12/22 00:54:02;;;;;;;11.93;7.47;;;;;;;5.98;100.00;99687.56;2081960;28;20170;-68
2023/12/22 00:55:03;;;;;;;13.40;6.23;;;;;;;6.30;100.00;99739.19;2082024;28;20524;-69
2023/12/22 00:56:04;;;;;;;10.90;6.37;;;;;;;6.26;100.00;99752.25;2081943;28;20670;-68
2023/12/22 00:57:05;;;;;;;10.95;6.32;;;;;;;6.26;100.00;99730.22;2082131;28;20552;-69
2023/12/22 00:58:05;;;;;;;12.47;6.30;;;;;;;6.25;100.00;99732.19;2081881;28;20212;-69
2023/12/22 00:59:06;;;;;;;15.13;6.70;;;;;;;6.28;100.00;99730.56;2082137;28;20271;-69
2023/12/22 01:00:12;;;;;;;14.27;7.70;;;;;;;5.29;100.00;99569.56;2081862;28;20615;-68
2023/12/22 01:01:12;;;;;;;15.90;8.50;;;;;;;6.31;100.00;99730.50;2081937;28;20165;-68
2023/12/22 01:02:16;;;;;;;15.33;7.97;;;;;;;6.24;100.00;99718.84;2081998;28;20181;-68
2023/12/22 01:03:17;;;;;;;15.73;7.85;;;;;;;6.27;100.00;99724.31;2081968;28;20204;-68
2023/12/22 01:04:17;;;;;;;15.43;8.83;;;;;;;5.26;100.00;99567.66;2081197;28;20200;-68
2023/12/22 01:05:18;;;;;;;19.57;8.00;;;;;;;6.27;100.00;99721.56;2081854;28;20251;-69
2023/12/22 01:06:18;;;;;;;20.50;8.53;;;;;;;6.29;100.00;99726.63;2081954;28;20188;-69
2023/12/22 01:07:19;;;;;;;16.67;8.67;;;;;;;6.29;100.00;99721.13;2081794;28;20548;-68
2023/12/22 01:08:20;;;;;;;13.67;7.20;;;;;;;6.26;100.00;99716.47;2082001;28;20204;-68
2023/12/22 01:09:21;;;;;;;17.60;9.35;;;;;;;6.31;100.00;99711.22;2081842;28;20226;-68
2023/12/22 01:10:21;;;;;;;16.67;8.00;;;;;;;5.57;100.00;99604.72;2082012;28;20179;-68
2023/12/22 01:11:22;;;;;;;13.57;8.50;;;;;;;6.20;100.00;99702.44;2081741;28;20657;-68
2023/12/22 01:12:22;;;;;;;20.20;8.93;;;;;;;6.27;100.00;99715.28;2081890;28;20560;-68
2023/12/22 01:13:23;;;;;;;20.40;8.90;;;;;;;6.27;100.00;99705.06;2081991;28;20177;-68
2023/12/22 01:14:23;;;;;;;13.37;8.50;;;;;;;6.25;100.00;99709.44;2081791;28;20177;-68
2023/12/22 01:15:24;;;;;;;17.83;9.97;;;;;;;6.25;100.00;99710.19;2081102;28;20254;-68
2023/12/22 01:16:24;;;;;;;17.13;8.33;;;;;;;6.22;100.00;99705.56;2081203;28;20669;-67
2023/12/22 01:17:25;;;;;;;15.73;9.63;;;;;;;6.13;100.00;99694.34;2081760;28;20208;-69
2023/12/22 01:18:28;;;;;;;18.83;10.13;;;;;;;6.25;100.00;99704.69;2081873;28;20561;-68
2023/12/22 01:19:29;;;;;;;22.55;9.15;;;;;;;6.33;100.00;99695.09;2081734;28;20177;-69
2023/12/22 01:20:29;;;;;;;22.53;9.07;;;;;;;6.38;100.00;99696.56;2081734;28;20704;-68
2023/12/22 01:21:30;;;;;;;21.20;9.40;;;;;;;6.39;100.00;99698.09;2081789;28;20670;-69
2023/12/22 01:22:32;;;;;;;21.00;8.67;;;;;;;6.43;100.00;99696.06;2081808;28;20237;-69
2023/12/22 01:23:33;;;;;;;28.20;9.30;;;;;;;6.41;100.00;99693.72;2081594;28;20195;-69
2023/12/22 01:24:34;;;;;;;16.27;8.67;;;;;;;6.43;100.00;99690.56;2081683;28;20421;-68
2023/12/22 01:25:34;;;;;;;14.63;8.37;;;;;;;6.43;100.00;99688.59;2081697;28;20178;-69
2023/12/22 01:26:35;;;;;;;16.70;8.73;;;;;;;6.43;100.00;99683.09;2081847;28;20184;-68
2023/12/22 01:27:35;;;;;;;13.63;8.30;;;;;;;6.50;100.00;99684.88;2081695;28;20174;-68
2023/12/22 01:28:36;;;;;;;16.57;9.47;;;;;;;6.17;100.00;99631.78;2081826;28;20244;-68
2023/12/22 01:29:36;;;;;;;16.67;9.60;;;;;;;6.52;100.00;99677.00;2081712;28;20183;-68
2023/12/22 01:30:37;;;;;;;14.57;9.00;;;;;;;6.31;100.00;99653.44;2081735;28;20210;-68
2023/12/22 01:31:37;;;;;;;26.57;9.23;;;;;;;6.40;100.00;99661.91;2081662;28;20183;-68
2023/12/22 01:32:38;;;;;;;14.17;8.43;;;;;;;6.53;100.00;99673.81;2081690;28;20181;-68
2023/12/22 01:33:38;;;;;;;12.37;8.80;;;;;;;6.55;100.00;99662.34;2081781;28;20184;-68
2023/12/22 01:34:40;;;;;;;23.67;9.53;;;;;;;6.58;100.00;99659.53;2081661;28;20184;-69
2023/12/22 01:35:40;;;;;;;16.07;8.47;;;;;;;6.54;100.00;99660.81;2081779;28;20221;-68
2023/12/22 01:36:41;;;;;;;17.27;8.83;;;;;;;6.59;100.00;99663.06;2081835;28;20426;-68
2023/12/22 01:37:42;;;;;;;15.98;9.57;;;;;;;6.54;100.00;99666.31;2081839;28;20186;-68
2023/12/22 01:38:42;;;;;;;16.97;9.67;;;;;;;6.52;100.00;99666.75;2081831;28;20191;-68
2023/12/22 01:39:43;;;;;;;14.77;8.07;;;;;;;6.59;100.00;99665.81;2081653;28;20187;-68
2023/12/22 01:40:44;;;;;;;17.23;9.93;;;;;;;6.31;100.00;99622.44;2081611;28;20222;-68
2023/12/22 01:41:44;;;;;;;19.67;9.13;;;;;;;6.65;100.00;99664.09;2081761;28;20700;-69
2023/12/22 01:42:46;;;;;;;16.13;9.50;;;;;;;6.61;100.00;99660.66;2081743;28;20849;-69
2023/12/22 01:43:46;;;;;;;17.37;8.83;;;;;;;6.64;100.00;99659.78;2081530;28;20706;-68
2023/12/22 01:44:47;;;;;;;16.83;8.27;;;;;;;6.65;100.00;99656.63;2081640;28;20510;-69
2023/12/22 01:45:49;;;;;;;15.70;8.83;;;;;;;6.65;100.00;99656.63;2081649;28;20562;-69
2023/12/22 01:46:50;;;;;;;15.40;9.07;;;;;;;6.68;100.00;99650.25;2081468;28;20652;-68
2023/12/22 01:47:51;;;;;;;16.23;8.80;;;;;;;6.73;100.00;99652.50;2081583;28;20166;-68
2023/12/22 01:48:52;;;;;;;14.40;8.18;;;;;;;6.72;100.00;99645.44;2081794;28;20510;-68
2023/12/22 01:49:53;;;;;;;17.63;9.23;;;;;;;6.75;100.00;99641.03;2081611;28;20191;-68
2023/12/22 01:50:56;;;;;;;12.87;8.13;;;;;;;6.76;100.00;99646.13;2081647;28;20227;-69
2023/12/22 01:51:57;;;;;;;13.75;9.05;;;;;;;6.84;100.00;99642.00;2081548;28;20170;-68
2023/12/22 01:52:57;;;;;;;15.07;8.60;;;;;;;6.85;100.00;99629.00;2081575;28;20207;-68
2023/12/22 01:53:59;;;;;;;16.13;8.60;;;;;;;6.60;100.00;99591.06;2081664;28;20195;-69
2023/12/22 01:55:00;;;;;;;16.63;8.55;;;;;;;6.90;100.00;99634.78;2081544;28;20650;-69
2023/12/22 01:56:02;;;;;;;15.50;8.33;;;;;;;6.92;100.00;99626.09;2081555;28;20608;-69
2023/12/22 01:57:03;;;;;;;14.90;9.05;;;;;;;6.93;100.00;99631.13;2081543;28;20263;-69
2023/12/22 01:58:04;;;;;;;16.00;7.93;;;;;;;6.91;100.00;99614.28;2081533;28;20177;-68
2023/12/22 01:59:05;;;;;;;13.32;7.57;;;;;;;6.99;100.00;99631.41;2081533;28;20196;-68
2023/12/22 02:00:06;;;;;;;16.63;8.57;;;;;;;6.99;100.00;99623.94;2081515;28;20177;-69
2023/12/22 02:01:07;;;;;;;16.20;7.78;;;;;;;6.84;100.00;99595.19;2081530;28;20184;-69
2023/12/22 02:02:08;;;;;;;16.75;8.35;;;;;;;6.97;100.00;99615.31;2081556;28;20668;-69
2023/12/22 02:03:09;;;;;;;12.97;7.70;;;;;;;6.96;100.00;99621.25;2081481;28;20184;-69
2023/12/22 02:04:09;;;;;;;13.70;8.77;;;;;;;6.95;100.00;99614.97;2081502;28;20681;-68
2023/12/22 02:05:11;;;;;;;16.20;9.07;;;;;;;6.93;100.00;99605.59;2081614;28;20654;-69
2023/12/22 02:06:11;;;;;;;15.70;8.30;;;;;;;6.38;100.00;99540.50;2081520;28;20563;-69
2023/12/22 02:07:12;;;;;;;13.83;7.70;;;;;;;6.97;100.00;99615.31;2081498;28;20177;-68
2023/12/22 02:08:13;;;;;;;16.83;9.13;;;;;;;6.35;100.00;99502.81;2080810;28;20663;-68
2023/12/22 02:09:13;;;;;;;15.33;8.50;;;;;;;7.00;100.00;99591.63;2081015;28;20184;-68
2023/12/22 02:10:14;;;;;;;11.93;8.10;;;;;;;7.01;100.00;99590.41;2081717;28;20203;-68
2023/12/22 02:11:15;;;;;;;15.70;7.90;;;;;;;6.42;100.00;99502.63;2081473;28;20212;-68
2023/12/22 02:12:16;;;;;;;16.27;7.97;;;;;;;7.00;100.00;99586.13;2081510;28;20171;-68
2023/12/22 02:13:16;;;;;;;15.73;8.60;;;;;;;6.98;100.00;99580.28;2081487;28;20179;-68
2023/12/22 02:14:17;;;;;;;12.03;7.17;;;;;;;6.96;100.00;99574.41;2081506;28;20185;-69
2023/12/22 02:15:18;;;;;;;14.70;8.37;;;;;;;6.90;100.00;99585.19;2082269;28;20177;-68
2023/12/22 02:16:43;;;;;;;13.97;7.53;;;;;;;6.88;100.00;99587.59;2083161;28;20180;-68
2023/12/22 02:18:12;;;;;;;15.38;8.68;;;;;;;6.83;100.00;99588.13;2083369;28;20170;-68
2023/12/22 02:19:38;;;;;;;13.45;8.00;;;;;;;6.81;100.00;99587.78;2083193;28;20627;-69
2023/12/22 02:20:38;;;;;;;11.48;6.85;;;;;;;6.71;100.00;99585.31;2083332;28;20187;-68
2023/12/22 02:21:59;;;;;;;11.63;6.03;;;;;;;6.69;100.00;99584.94;2083322;28;20192;-69
2023/12/22 02:23:00;;;;;;;14.30;6.85;;;;;;;6.68;100.00;99578.69;2083145;28;20165;-68
2023/12/22 02:24:00;;;;;;;10.73;6.67;;;;;;;6.74;100.00;99584.44;2083036;28;20236;-68
2023/12/22 02:25:01;;;;;;;12.57;7.27;;;;;;;6.13;100.00;99479.81;2083157;28;20268;-69
2023/12/22 02:26:36;;;;;;;18.47;7.13;;;;;;;6.71;100.00;99557.78;2083176;28;20177;-68
2023/12/22 02:27:52;;;;;;;13.48;7.72;;;;;;;6.47;100.00;99513.13;2082841;28;20196;-68
2023/12/22 02:28:57;;;;;;;10.40;6.90;;;;;;;6.88;100.00;99581.34;2083320;28;20243;-68
2023/12/22 02:30:07;;;;;;;10.32;6.40;;;;;;;6.82;100.00;99578.31;2083048;28;20215;-68
2023/12/22 02:31:18;;;;;;;11.23;7.15;;;;;;;6.83;100.00;99579.84;2083096;28;20593;-69
2023/12/22 02:32:40;;;;;;;9.98;6.70;;;;;;;6.15;100.00;99473.88;2083092;28;20201;-69
2023/12/22 02:33:42;;;;;;;12.02;7.38;;;;;;;6.81;100.00;99579.53;2083053;28;20154;-69
2023/12/22 02:34:47;;;;;;;9.73;6.10;;;;;;;6.74;100.00;99574.22;2082985;28;20565;-68
2023/12/22 02:35:49;;;;;;;11.07;6.50;;;;;;;6.73;100.00;99575.41;2083096;28;20318;-69
2023/12/22 02:36:53;;;;;;;11.85;7.00;;;;;;;6.70;100.00;99573.50;2083102;28;20647;-68
2023/12/22 02:37:57;;;;;;;12.88;7.63;;;;;;;6.70;100.00;99575.47;2082997;28;20261;-68
2023/12/22 02:38:59;;;;;;;12.82;6.60;;;;;;;6.67;100.00;99570.84;2083193;28;20667;-69
2023/12/22 02:40:01;;;;;;;10.68;6.78;;;;;;;6.73;100.00;99569.91;2082938;28;20235;-69
2023/12/22 02:41:02;;;;;;;12.55;6.85;;;;;;;6.39;100.00;99522.78;2082936;28;20652;-68
2023/12/22 02:42:05;;;;;;;11.10;6.68;;;;;;;6.73;100.00;99564.41;2082960;28;20558;-68
2023/12/22 02:43:06;;;;;;;14.75;7.05;;;;;;;5.72;100.00;99388.84;2082883;28;20174;-68
2023/12/22 02:44:07;;;;;;;10.95;6.50;;;;;;;6.81;100.00;99545.72;2082954;28;20181;-69
2023/12/22 02:45:14;;;;;;;16.05;6.60;;;;;;;6.77;100.00;99545.78;2082985;28;20208;-69
2023/12/22 02:46:15;;;;;;;12.35;7.53;;;;;;;6.76;100.00;99549.75;2083002;28;20219;-68
2023/12/22 02:47:16;;;;;;;11.68;7.07;;;;;;;5.67;100.00;99372.09;2082793;28;20227;-68
2023/12/22 02:48:16;;;;;;;13.47;7.07;;;;;;;6.79;100.00;99531.59;2082898;28;20183;-69
2023/12/22 02:49:18;;;;;;;11.10;7.27;;;;;;;6.88;100.00;99546.28;2082920;28;20209;-69
2023/12/22 02:50:18;;;;;;;12.10;6.63;;;;;;;6.91;100.00;99547.41;2082899;28;20184;-69
2023/12/22 02:51:19;;;;;;;12.97;7.57;;;;;;;6.75;100.00;99542.72;2083098;28;20185;-68
2023/12/22 02:52:19;;;;;;;13.57;7.10;;;;;;;6.86;100.00;99545.97;2082967;28;20176;-69
2023/12/22 02:53:20;;;;;;;18.37;6.90;;;;;;;6.14;100.00;99431.06;2082856;28;20681;-68
2023/12/22 02:54:20;;;;;;;13.00;6.83;;;;;;;6.82;100.00;99545.28;2082832;28;20596;-69
2023/12/22 02:55:21;;;;;;;13.03;6.90;;;;;;;6.77;100.00;99542.28;2082855;28;20181;-69
2023/12/22 02:56:21;;;;;;;11.37;6.70;;;;;;;6.74;100.00;99535.66;2083029;28;20177;-68
2023/12/22 02:57:22;;;;;;;12.83;7.17;;;;;;;6.74;100.00;99540.38;2082149;28;20213;-69
2023/12/22 02:58:23;;;;;;;13.07;7.43;;;;;;;6.71;100.00;99525.50;2073949;28;20205;-69
2023/12/22 02:59:23;;;;;;;11.80;7.57;;;;;;;6.60;100.00;99519.50;2082352;28;20188;-68
2023/12/22 03:00:24;;;;;;;13.53;6.73;;;;;;;6.69;100.00;99533.44;2082133;28;20660;-69
2023/12/22 03:01:24;;;;;;;12.87;7.00;;;;;;;6.66;100.00;99539.78;2082343;28;20677;-68
2023/12/22 03:02:25;;;;;;;11.77;6.73;;;;;;;6.63;100.00;99537.91;2082818;28;20709;-68
2023/12/22 03:03:25;;;;;;;14.33;7.83;;;;;;;6.67;100.00;99530.31;2082661;28;20244;-69
2023/12/22 03:04:26;;;;;;;10.00;6.87;;;;;;;6.66;100.00;99539.03;2082937;28;20181;-69
2023/12/22 03:05:27;;;;;;;12.37;6.63;;;;;;;6.65;100.00;99529.19;2082985;28;20177;-68
2023/12/22 03:06:27;;;;;;;12.83;6.40;;;;;;;6.55;100.00;99527.50;2082777;28;20420;-68
2023/12/22 03:07:28;;;;;;;10.83;6.43;;;;;;;6.62;100.00;99530.09;2082893;28;20263;-68
2023/12/22 03:08:28;;;;;;;11.33;6.83;;;;;;;6.67;100.00;99535.81;2082775;28;20181;-69
2023/12/22 03:09:29;;;;;;;10.87;6.50;;;;;;;6.63;100.00;99529.66;2082706;28;20189;-68
2023/12/22 03:10:30;;;;;;;11.80;7.20;;;;;;;6.19;100.00;99458.03;2082676;28;20189;-68
2023/12/22 03:11:30;;;;;;;14.97;6.43;;;;;;;6.58;100.00;99524.66;2082743;28;20189;-68
2023/12/22 03:12:31;;;;;;;9.90;6.40;;;;;;;6.58;100.00;99524.66;2082873;28;20661;-68
2023/12/22 03:13:31;;;;;;;12.53;6.63;;;;;;;6.61;100.00;99523.03;2082665;28;20178;-69
2023/12/22 03:14:33;;;;;;;11.70;6.93;;;;;;;6.58;100.00;99524.66;2082797;28;20184;-69
2023/12/22 03:15:33;;;;;;;9.07;6.18;;;;;;;6.54;100.00;99512.19;2082677;28;20555;-68
2023/12/22 03:16:34;;;;;;;13.30;7.10;;;;;;;6.63;100.00;99531.63;2082731;28;20187;-69
2023/12/22 03:17:34;;;;;;;11.57;7.13;;;;;;;6.44;100.00;99496.72;2082798;28;20568;-68
2023/12/22 03:18:35;;;;;;;8.90;6.83;;;;;;;6.46;100.00;99525.34;2082669;28;20187;-68
2023/12/22 03:19:35;;;;;;;10.90;6.80;;;;;;;6.44;100.00;99521.47;2082917;28;20226;-69
2023/12/22 03:20:36;;;;;;;11.90;6.67;;;;;;;6.41;100.00;99531.38;2082703;28;20192;-68
2023/12/22 03:21:36;;;;;;;10.50;6.10;;;;;;;6.40;100.00;99521.56;2082794;28;20659;-68
2023/12/22 03:22:37;;;;;;;11.83;7.37;;;;;;;6.37;100.00;99518.91;2082743;28;20670;-68
2023/12/22 03:23:37;;;;;;;14.77;7.60;;;;;;;6.35;100.00;99522.09;2082555;28;20208;-68
2023/12/22 03:24:38;;;;;;;12.00;7.13;;;;;;;6.26;100.00;99516.41;2082668;28;20181;-68
2023/12/22 03:25:39;;;;;;;11.48;7.63;;;;;;;6.21;100.00;99514.16;2082651;28;20227;-68
2023/12/22 03:26:39;;;;;;;12.83;8.07;;;;;;;6.21;100.00;99505.91;2082398;28;20191;-68
2023/12/22 03:27:40;;;;;;;14.10;8.17;;;;;;;6.12;100.00;99478.25;2082197;28;20173;-68
2023/12/22 03:28:40;;;;;;;11.30;7.60;;;;;;;6.32;100.00;99500.97;2082701;28;20188;-68
2023/12/22 03:29:40;;;;;;;13.50;7.97;;;;;;;6.35;100.00;99497.31;2082607;28;20177;-68
2023/12/22 03:30:42;;;;;;;12.50;7.60;;;;;;;6.26;100.00;99490.88;2082579;28;20188;-68
2023/12/22 03:31:43;;;;;;;11.85;7.38;;;;;;;6.30;100.00;99492.34;2082683;28;20725;-68
2023/12/22 03:32:43;;;;;;;12.50;7.20;;;;;;;6.33;100.00;99485.19;2082566;28;20180;-68
2023/12/22 03:33:44;;;;;;;12.37;7.23;;;;;;;6.36;100.00;99492.59;2082522;28;20181;-68
2023/12/22 03:34:44;;;;;;;14.50;7.40;;;;;;;5.96;100.00;99428.75;2082558;28;20177;-68
2023/12/22 03:35:45;;;;;;;12.57;7.70;;;;;;;6.24;100.00;99469.31;2082569;28;20177;-68
2023/12/22 03:36:48;;;;;;;13.40;8.93;;;;;;;6.34;100.00;99486.75;2082553;28;20561;-68
2023/12/22 03:37:49;;;;;;;15.00;9.02;;;;;;;6.27;100.00;99484.97;2082693;28;20361;-68
2023/12/22 03:38:49;;;;;;;16.03;9.00;;;;;;;6.29;100.00;99476.25;2082641;28;20223;-68
2023/12/22 03:39:50;;;;;;;11.43;7.20;;;;;;;6.27;100.00;99486.94;2082531;28;20181;-68
2023/12/22 03:40:50;;;;;;;13.13;7.80;;;;;;;6.25;100.00;99473.59;2082497;28;20188;-68
2023/12/22 03:41:51;;;;;;;12.63;7.33;;;;;;;6.10;100.00;99449.63;2082557;28;20219;-68
2023/12/22 03:42:51;;;;;;;11.83;7.80;;;;;;;6.16;100.00;99462.41;2082511;28;20561;-68
2023/12/22 03:43:51;;;;;;;9.80;6.93;;;;;;;5.97;100.00;99454.25;2082516;28;20648;-67
2023/12/22 03:44:52;;;;;;;11.53;7.67;;;;;;;6.08;100.00;99465.78;2082470;28;20177;-68
2023/12/22 03:45:52;;;;;;;10.53;7.03;;;;;;;5.62;100.00;99378.09;2082459;28;20267;-68
2023/12/22 03:46:53;;;;;;;12.47;8.23;;;;;;;6.01;100.00;99452.22;2082394;28;20177;-68
2023/12/22 03:47:53;;;;;;;14.20;8.00;;;;;;;6.04;100.00;99462.34;2082445;28;20560;-68
2023/12/22 03:48:54;;;;;;;10.03;6.70;;;;;;;6.07;100.00;99456.78;2082574;28;20556;-68
2023/12/22 03:49:54;;;;;;;13.10;7.23;;;;;;;6.07;100.00;99454.03;2082475;28;20260;-68
2023/12/22 03:50:55;;;;;;;14.07;7.57;;;;;;;5.74;100.00;99405.69;2082451;28;20213;-68
2023/12/22 03:51:55;;;;;;;12.80;7.33;;;;;;;6.09;100.00;99446.09;2082419;28;20179;-68
2023/12/22 03:52:56;;;;;;;12.87;8.53;;;;;;;6.10;100.00;99453.16;2082411;28;20188;-68
2023/12/22 03:53:56;;;;;;;12.50;7.73;;;;;;;6.03;100.00;99447.03;2081736;28;20200;-68
2023/12/22 03:54:57;;;;;;;14.53;8.20;;;;;;;6.10;100.00;99455.13;2081759;28;20674;-68
2023/12/22 03:55:57;;;;;;;15.57;7.73;;;;;;;5.94;100.00;99428.41;2082431;28;20211;-68
2023/12/22 03:56:58;;;;;;;12.27;7.30;;;;;;;6.05;100.00;99452.91;2082401;28;20582;-68
2023/12/22 03:57:58;;;;;;;13.53;8.50;;;;;;;5.61;100.00;99390.31;2082359;28;20177;-68
2023/12/22 03:58:59;;;;;;;14.80;8.07;;;;;;;6.02;100.00;99451.78;2082479;28;20188;-68
2023/12/22 03:59:59;;;;;;;16.60;7.37;;;;;;;5.94;100.00;99439.41;2082306;28;20268;-68
2023/12/22 04:01:00;;;;;;;12.67;7.73;;;;;;;5.99;100.00;99452.63;2082395;28;20652;-68
2023/12/22 04:02:01;;;;;;;12.90;7.50;;;;;;;5.92;100.00;99452.03;2082550;28;20177;-68
2023/12/22 04:03:02;;;;;;;13.00;8.23;;;;;;;5.87;100.00;99449.78;2082569;28;20177;-68
2023/12/22 04:04:03;;;;;;;11.53;7.47;;;;;;;5.84;100.00;99454.16;2082242;28;20208;-68
2023/12/22 04:05:03;;;;;;;14.27;6.90;;;;;;;5.65;100.00;99432.22;2082375;28;20201;-67
2023/12/22 04:06:04;;;;;;;11.43;6.90;;;;;;;5.86;100.00;99456.50;2082337;28;20173;-68
2023/12/22 04:07:05;;;;;;;11.57;6.73;;;;;;;5.92;100.00;99465.78;2082448;28;20211;-68
2023/12/22 04:08:06;;;;;;;12.47;7.70;;;;;;;5.68;100.00;99420.34;2082306;28;20607;-69
2023/12/22 04:09:06;;;;;;;10.93;6.88;;;;;;;5.74;100.00;99448.91;2082352;28;20169;-68
2023/12/22 04:10:07;;;;;;;12.30;7.10;;;;;;;5.79;100.00;99464.88;2082484;28;20234;-68
2023/12/22 04:11:08;;;;;;;12.90;7.13;;;;;;;5.85;100.00;99472.19;2082311;28;20176;-68
2023/12/22 04:12:08;;;;;;;11.87;6.93;;;;;;;5.87;100.00;99471.78;2082327;28;20177;-68
2023/12/22 04:13:09;;;;;;;12.27;6.60;;;;;;;5.90;100.00;99470.94;2082271;28;20563;-68
2023/12/22 04:14:09;;;;;;;11.17;6.97;;;;;;;5.84;100.00;99478.91;2082223;28;20177;-69
2023/12/22 04:15:10;;;;;;;9.87;6.10;;;;;;;5.83;100.00;99474.63;2082241;28;20197;-68
2023/12/22 04:16:10;;;;;;;9.97;6.20;;;;;;;5.46;100.00;99422.84;2082210;28;20175;-68
2023/12/22 04:17:11;;;;;;;12.13;6.93;;;;;;;5.86;100.00;99481.25;2082340;28;20176;-68
2023/12/22 04:18:11;;;;;;;11.87;6.20;;;;;;;5.87;100.00;99480.03;2082366;28;20177;-68
2023/12/22 04:19:12;;;;;;;13.90;8.03;;;;;;;5.79;100.00;99462.13;2082166;28;20180;-68
2023/12/22 04:20:13;;;;;;;14.20;7.63;;;;;;;5.85;100.00;99477.69;2082174;28;20181;-68
2023/12/22 04:21:13;;;;;;;15.57;7.63;;;;;;;5.90;100.00;99479.94;2082393;28;20698;-68
2023/12/22 04:22:14;;;;;;;11.63;8.00;;;;;;;5.95;100.00;99475.94;2082212;28;20608;-68
2023/12/22 04:23:14;;;;;;;14.53;7.90;;;;;;;6.01;100.00;99482.47;2082138;28;20183;-68
2023/12/22 04:24:15;;;;;;;13.77;7.17;;;;;;;5.84;100.00;99448.66;2082382;28;20179;-68
2023/12/22 04:25:16;;;;;;;15.57;8.47;;;;;;;5.96;100.00;99459.00;2082179;28;20200;-68
2023/12/22 04:26:16;;;;;;;11.38;7.53;;;;;;;6.04;100.00;99465.88;2082185;28;20184;-68
2023/12/22 04:27:17;;;;;;;15.40;9.27;;;;;;;6.03;100.00;99463.53;2082256;28;20266;-68
2023/12/22 04:28:17;;;;;;;13.70;8.50;;;;;;;6.02;100.00;99465.53;2082342;28;20188;-68
2023/12/22 04:29:18;;;;;;;12.53;7.83;;;;;;;5.83;100.00;99435.34;2082132;28;20185;-68
2023/12/22 04:30:18;;;;;;;16.93;9.27;;;;;;;6.06;100.00;99468.19;2082223;28;20177;-68
2023/12/22 04:31:19;;;;;;;16.47;8.83;;;;;;;5.94;100.00;99455.91;2082104;28;20184;-68
2023/12/22 04:32:19;;;;;;;13.53;8.90;;;;;;;5.37;100.00;99372.41;2082022;28;20188;-68
2023/12/22 04:33:20;;;;;;;14.10;8.97;;;;;;;6.05;100.00;99467.41;2082033;28;20181;-68
2023/12/22 04:34:20;;;;;;;14.70;9.77;;;;;;;6.09;100.00;99467.31;2082024;28;20274;-67
2023/12/22 04:35:21;;;;;;;13.70;8.17;;;;;;;6.06;100.00;99460.69;2082083;28;20181;-68
2023/12/22 04:36:21;;;;;;;13.60;8.60;;;;;;;6.02;100.00;99465.53;2082167;28;20185;-68
2023/12/22 04:37:22;;;;;;;12.77;7.50;;;;;;;6.03;100.00;99464.31;2082175;28;20684;-68
2023/12/22 04:38:22;;;;;;;11.33;7.63;;;;;;;5.98;100.00;99469.56;2081652;28;20177;-68
2023/12/22 04:39:23;;;;;;;11.83;7.20;;;;;;;6.03;100.00;99464.31;2081445;28;20210;-68
2023/12/22 04:40:23;;;;;;;14.60;8.10;;;;;;;6.05;100.00;99469.41;2082135;28;20624;-68
2023/12/22 04:41:24;;;;;;;16.00;8.40;;;;;;;6.06;100.00;99460.69;2082020;28;20577;-68
2023/12/22 04:42:28;;;;;;;10.53;7.33;;;;;;;6.21;100.00;99480.41;2081372;28;20181;-68
2023/12/22 04:43:28;;;;;;;11.63;6.90;;;;;;;6.19;100.00;99467.06;2081401;28;20263;-67
2023/12/22 04:44:29;;;;;;;13.73;7.83;;;;;;;6.28;100.00;99485.72;2082012;28;20296;-68
2023/12/22 04:45:29;;;;;;;14.73;6.43;;;;;;;6.25;100.00;99475.59;2081330;28;20193;-68